Time;durP1;ratioP1;P1;durP2;ratioP2;P2;SDS_P1;SDS_P2;PMS_P1;PMS_P2;Temp;Humidity;BMP_temperature;BMP_pressure;BME280_temperature;BME280_humidity;BME280_pressure;Samples;Min_cycle;Max_cycle;Signal;HPM_P1;HPM_P2
2023/12/13 00:04:45;;;;;;;12.02;9.43;;;;;;;;;;10192503;28;20081;-66
2023/12/13 00:09:44;;;;;;;12.90;9.25;;;;;;;;;;10201158;28;20069;-66
2023/12/13 00:14:42;;;;;;;11.93;9.95;;;;;;;;;;10208888;28;20104;-65
2023/12/13 00:19:40;;;;;;;9.63;8.52;;;;;;;;;;10209313;28;20471;-66
2023/12/13 00:24:40;;;;;;;11.75;9.45;;;;;;;;;;10206918;28;20535;-66
2023/12/13 00:29:39;;;;;;;13.85;10.27;;;;;;;;;;10185402;28;20175;-66
2023/12/13 00:34:37;;;;;;;11.10;9.60;;;;;;;;;;10161080;28;20418;-65
2023/12/13 00:39:36;;;;;;;11.93;9.98;;;;;;;;;;10160813;28;20061;-66
2023/12/13 00:44:36;;;;;;;11.40;9.73;;;;;;;;;;10161947;28;20072;-66
2023/12/13 00:49:35;;;;;;;9.82;8.70;;;;;;;;;;10163841;28;21602;-66
2023/12/13 00:54:33;;;;;;;9.43;8.52;;;;;;;;;;10162315;28;20041;-66
2023/12/13 00:59:31;;;;;;;9.27;8.18;;;;;;;;;;10145615;28;20157;-66
2023/12/13 01:04:33;;;;;;;14.43;9.80;;;;;;;;;;10161218;28;20042;-66
2023/12/13 01:09:32;;;;;;;10.43;9.32;;;;;;;;;;10161144;28;20053;-66
2023/12/13 01:14:30;;;;;;;11.35;9.10;;;;;;;;;;10160793;28;20049;-66
2023/12/13 01:19:28;;;;;;;11.25;9.68;;;;;;;;;;10157842;28;20046;-66
2023/12/13 01:24:28;;;;;;;10.85;8.38;;;;;;;;;;10156308;28;20045;-66
2023/12/13 01:29:26;;;;;;;10.27;8.32;;;;;;;;;;10156639;28;20041;-66
2023/12/13 01:34:24;;;;;;;11.50;8.57;;;;;;;;;;10157752;28;20038;-66
2023/12/13 01:39:23;;;;;;;10.45;8.75;;;;;;;;;;10160817;28;21497;-66
2023/12/13 01:44:22;;;;;;;12.20;9.80;;;;;;;;;;10161078;28;20043;-66
2023/12/13 01:49:21;;;;;;;10.75;8.57;;;;;;;;;;10159987;28;20502;-66
2023/12/13 01:54:19;;;;;;;9.90;8.75;;;;;;;;;;10158668;28;20093;-66
2023/12/13 01:59:18;;;;;;;8.65;7.75;;;;;;;;;;10158094;28;20044;-66
2023/12/13 02:04:18;;;;;;;11.13;9.30;;;;;;;;;;10158638;28;20130;-66
2023/12/13 02:09:16;;;;;;;12.18;9.23;;;;;;;;;;10158981;28;20076;-65
2023/12/13 02:14:14;;;;;;;11.93;9.30;;;;;;;;;;10160940;28;20057;-65
2023/12/13 02:19:13;;;;;;;11.25;8.95;;;;;;;;;;10159788;28;20045;-66
2023/12/13 02:24:12;;;;;;;12.80;8.98;;;;;;;;;;10160170;28;21004;-65
2023/12/13 02:29:11;;;;;;;9.25;7.07;;;;;;;;;;10164177;28;20525;-66
2023/12/13 02:34:09;;;;;;;7.60;6.80;;;;;;;;;;10167367;28;20045;-66
2023/12/13 02:39:08;;;;;;;7.93;6.80;;;;;;;;;;10149145;28;20072;-65
2023/12/13 02:44:11;;;;;;;8.05;6.53;;;;;;;;;;10166207;28;20041;-66
2023/12/13 02:49:09;;;;;;;8.25;7.00;;;;;;;;;;10165395;28;20056;-66
2023/12/13 02:54:07;;;;;;;8.35;7.10;;;;;;;;;;10164859;28;20057;-65
2023/12/13 02:59:05;;;;;;;14.45;7.10;;;;;;;;;;10164728;28;20059;-65
2023/12/13 03:04:05;;;;;;;10.65;7.70;;;;;;;;;;10165731;28;20055;-65
2023/12/13 03:09:03;;;;;;;11.00;7.53;;;;;;;;;;10165501;28;20935;-65
2023/12/13 03:14:02;;;;;;;8.70;7.80;;;;;;;;;;10165557;28;20037;-66
2023/12/13 03:19:00;;;;;;;8.32;7.25;;;;;;;;;;10165121;28;20087;-66
2023/12/13 03:24:00;;;;;;;10.07;7.55;;;;;;;;;;10163613;28;20041;-66
2023/12/13 03:28:58;;;;;;;9.27;7.93;;;;;;;;;;10163201;28;20518;-66
2023/12/13 03:33:56;;;;;;;7.38;6.55;;;;;;;;;;10163806;28;20654;-66
2023/12/13 03:38:55;;;;;;;5.93;5.32;;;;;;;;;;10163732;28;20067;-66
2023/12/13 03:43:55;;;;;;;7.45;6.72;;;;;;;;;;10164397;28;20064;-66
2023/12/13 03:48:53;;;;;;;13.23;9.80;;;;;;;;;;10165131;28;20048;-66
2023/12/13 03:53:51;;;;;;;78.85;49.20;;;;;;;;;;10163758;28;21564;-67
2023/12/13 03:58:50;;;;;;;56.30;38.03;;;;;;;;;;10164679;28;20050;-66
2023/12/13 04:03:49;;;;;;;26.88;17.67;;;;;;;;;;10162582;28;20064;-66
2023/12/13 04:08:48;;;;;;;21.92;15.02;;;;;;;;;;10162422;28;20053;-66
2023/12/13 04:13:46;;;;;;;20.23;16.98;;;;;;;;;;10161753;28;20057;-66
2023/12/13 04:18:44;;;;;;;20.45;18.25;;;;;;;;;;10162645;28;20060;-66
2023/12/13 04:23:44;;;;;;;13.30;11.05;;;;;;;;;;10163960;28;20033;-66
2023/12/13 04:28:42;;;;;;;50.67;33.58;;;;;;;;;;10162273;28;20060;-66
2023/12/13 04:33:41;;;;;;;30.20;23.15;;;;;;;;;;10163006;28;21367;-66
2023/12/13 04:38:39;;;;;;;26.77;17.15;;;;;;;;;;10161197;28;20060;-66
2023/12/13 04:43:39;;;;;;;17.10;12.15;;;;;;;;;;10161342;28;20044;-66
2023/12/13 04:48:37;;;;;;;40.25;25.77;;;;;;;;;;10161035;28;20052;-66
2023/12/13 04:53:36;;;;;;;25.88;18.45;;;;;;;;;;10161486;28;20072;-66
2023/12/13 04:58:34;;;;;;;7.57;5.72;;;;;;;;;;10159516;28;20056;-66
2023/12/13 05:03:34;;;;;;;6.22;5.63;;;;;;;;;;10160392;28;20400;-66
2023/12/13 05:08:33;;;;;;;7.20;5.13;;;;;;;;;;10159710;28;20055;-67
2023/12/13 05:13:31;;;;;;;15.45;11.55;;;;;;;;;;10159334;28;20511;-66
2023/12/13 05:18:30;;;;;;;13.65;9.38;;;;;;;;;;10159259;28;20453;-66
2023/12/13 05:23:30;;;;;;;6.60;5.90;;;;;;;;;;10158578;28;20071;-67
2023/12/13 05:28:28;;;;;;;6.05;5.40;;;;;;;;;;10161775;28;20037;-66
2023/12/13 05:33:27;;;;;;;9.82;6.25;;;;;;;;;;10171699;28;20548;-66
2023/12/13 05:38:25;;;;;;;30.13;23.42;;;;;;;;;;10203654;28;20085;-66
2023/12/13 05:43:25;;;;;;;11.90;9.45;;;;;;;;;;10204580;28;20081;-65
2023/12/13 05:48:23;;;;;;;21.38;14.18;;;;;;;;;;10199185;28;20084;-66
2023/12/13 05:53:21;;;;;;;6.28;5.68;;;;;;;;;;10209072;28;20066;-65
2023/12/13 05:58:19;;;;;;;6.10;4.90;;;;;;;;;;10209151;28;20093;-65
2023/12/13 06:03:19;;;;;;;6.97;5.45;;;;;;;;;;10215467;28;20069;-65
2023/12/13 06:08:17;;;;;;;7.68;5.40;;;;;;;;;;10219988;28;20069;-67
2023/12/13 06:13:17;;;;;;;7.35;4.95;;;;;;;;;;10212805;28;20099;-66
2023/12/13 06:18:15;;;;;;;5.65;4.78;;;;;;;;;;10211368;28;20092;-67
2023/12/13 06:23:15;;;;;;;4.90;4.32;;;;;;;;;;10222778;28;20078;-64
2023/12/13 06:28:13;;;;;;;5.30;4.80;;;;;;;;;;10215716;28;20069;-67
2023/12/13 06:33:11;;;;;;;5.43;4.80;;;;;;;;;;10217373;28;20069;-66
2023/12/13 06:38:10;;;;;;;6.03;4.90;;;;;;;;;;10218499;28;20092;-66
2023/12/13 06:43:09;;;;;;;6.90;6.13;;;;;;;;;;10216263;28;20076;-66
2023/12/13 06:48:08;;;;;;;16.58;10.45;;;;;;;;;;10219734;28;20343;-65
2023/12/13 06:53:07;;;;;;;8.85;6.07;;;;;;;;;;10190147;28;20796;-66
2023/12/13 06:58:06;;;;;;;6.32;5.72;;;;;;;;;;10217225;28;20077;-66
2023/12/13 07:03:06;;;;;;;13.40;8.73;;;;;;;;;;10200227;28;20132;-66
2023/12/13 07:08:04;;;;;;;13.82;8.98;;;;;;;;;;10209219;28;20061;-66
2023/12/13 07:13:03;;;;;;;21.58;16.55;;;;;;;;;;10173495;28;20132;-66
2023/12/13 07:18:01;;;;;;;42.67;26.45;;;;;;;;;;10217576;28;20073;-66
2023/12/13 07:23:01;;;;;;;61.55;41.97;;;;;;;;;;10213042;28;20053;-66
2023/12/13 07:27:59;;;;;;;75.63;51.45;;;;;;;;;;10208864;28;20077;-65
2023/12/13 07:32:58;;;;;;;64.75;45.90;;;;;;;;;;10183633;28;20120;-66
2023/12/13 07:37:56;;;;;;;40.03;31.58;;;;;;;;;;10214519;28;20081;-66
2023/12/13 07:42:56;;;;;;;48.35;41.03;;;;;;;;;;10217071;28;20605;-65
2023/12/13 07:47:54;;;;;;;46.50;37.80;;;;;;;;;;10202223;28;20080;-65
2023/12/13 07:53:10;;;;;;;46.70;36.70;;;;;;;;;;10205177;28;20073;-65
2023/12/13 07:58:10;;;;;;;68.00;50.95;;;;;;;;;;10213150;28;20069;-65
2023/12/13 08:03:08;;;;;;;34.40;26.73;;;;;;;;;;10192028;28;20505;-65
2023/12/13 08:08:07;;;;;;;26.90;21.52;;;;;;;;;;10186263;28;20677;-65
2023/12/13 08:13:05;;;;;;;8.57;7.45;;;;;;;;;;10205202;28;20991;-65
2023/12/13 08:18:05;;;;;;;22.25;14.93;;;;;;;;;;10189542;28;20582;-66
2023/12/13 08:23:04;;;;;;;40.25;30.85;;;;;;;;;;10201062;28;20072;-65
2023/12/13 08:28:02;;;;;;;32.75;24.25;;;;;;;;;;10180843;28;20124;-66
2023/12/13 08:33:01;;;;;;;28.42;22.48;;;;;;;;;;10200084;28;20184;-65
2023/12/13 08:38:01;;;;;;;40.00;29.73;;;;;;;;;;10202934;28;20077;-67
2023/12/13 08:43:00;;;;;;;29.65;24.33;;;;;;;;;;10195307;28;20073;-66
2023/12/13 08:47:58;;;;;;;38.13;30.27;;;;;;;;;;10157860;28;20533;-66
2023/12/13 08:52:56;;;;;;;24.75;21.50;;;;;;;;;;10157486;28;20480;-65
2023/12/13 08:57:56;;;;;;;33.83;25.15;;;;;;;;;;10156208;28;20517;-65
2023/12/13 09:02:54;;;;;;;33.78;24.73;;;;;;;;;;10165668;28;20075;-65
2023/12/13 09:07:53;;;;;;;33.90;23.60;;;;;;;;;;10199564;28;20157;-66
2023/12/13 09:12:51;;;;;;;30.98;24.90;;;;;;;;;;10191615;28;20069;-65
2023/12/13 09:17:51;;;;;;;24.40;19.35;;;;;;;;;;10172153;28;20589;-66
2023/12/13 09:22:49;;;;;;;28.65;22.33;;;;;;;;;;10162165;28;20053;-65
2023/12/13 09:27:47;;;;;;;31.38;23.85;;;;;;;;;;10187616;28;20124;-65
2023/12/13 09:32:45;;;;;;;26.42;22.90;;;;;;;;;;10199776;28;20076;-65
2023/12/13 09:37:46;;;;;;;57.88;38.30;;;;;;;;;;10211850;28;20077;-66
2023/12/13 09:42:46;;;;;;;29.98;24.77;;;;;;;;;;10192392;28;20513;-66
2023/12/13 09:47:45;;;;;;;40.97;30.17;;;;;;;;;;10193728;28;20120;-66
2023/12/13 09:52:44;;;;;;;69.47;47.40;;;;;;;;;;10189025;28;20124;-66
2023/12/13 09:57:44;;;;;;;38.45;31.48;;;;;;;;;;10187934;28;20136;-66
2023/12/13 10:02:42;;;;;;;42.20;26.77;;;;;;;;;;10177463;28;20140;-66
2023/12/13 10:07:41;;;;;;;32.72;25.58;;;;;;;;;;10202727;28;20073;-65
2023/12/13 10:12:39;;;;;;;36.17;26.40;;;;;;;;;;10200013;28;20439;-64
2023/12/13 10:17:39;;;;;;;30.92;24.98;;;;;;;;;;10190923;28;20129;-65
2023/12/13 10:22:40;;;;;;;27.95;22.92;;;;;;;;;;10158403;28;20049;-66
2023/12/13 10:27:39;;;;;;;26.42;19.63;;;;;;;;;;10183960;28;20128;-66
2023/12/13 10:32:37;;;;;;;28.73;19.42;;;;;;;;;;10191764;28;20132;-66
2023/12/13 10:37:37;;;;;;;32.10;26.10;;;;;;;;;;10182091;28;20136;-66
2023/12/13 10:42:37;;;;;;;33.20;21.50;;;;;;;;;;10180944;28;20467;-66
2023/12/13 10:47:36;;;;;;;20.30;17.48;;;;;;;;;;10203364;28;20084;-68
2023/12/13 10:52:36;;;;;;;23.50;20.13;;;;;;;;;;10186381;28;20152;-67
2023/12/13 10:57:36;;;;;;;37.15;29.27;;;;;;;;;;10192074;28;20594;-66
2023/12/13 11:02:39;;;;;;;20.15;17.58;;;;;;;;;;10201863;28;20069;-68
2023/12/13 11:07:43;;;;;;;23.00;19.45;;;;;;;;;;10208388;28;20073;-66
2023/12/13 11:12:50;;;;;;;24.88;20.15;;;;;;;;;;10208351;28;20076;-66
2023/12/13 11:17:50;;;;;;;29.00;22.30;;;;;;;;;;10204230;28;20077;-66
2023/12/13 11:22:49;;;;;;;27.77;22.30;;;;;;;;;;10199740;28;20101;-67
2023/12/13 11:27:50;;;;;;;25.60;20.50;;;;;;;;;;10159118;28;20579;-67
2023/12/13 11:32:49;;;;;;;19.73;17.70;;;;;;;;;;10162513;28;20064;-66
2023/12/13 11:37:49;;;;;;;26.35;18.20;;;;;;;;;;10158479;28;20072;-66
2023/12/13 11:42:49;;;;;;;31.20;21.08;;;;;;;;;;10146045;28;20053;-67
2023/12/13 11:47:50;;;;;;;25.42;20.02;;;;;;;;;;10168471;28;20041;-66
2023/12/13 11:52:49;;;;;;;26.02;18.55;;;;;;;;;;10165520;28;20049;-67
2023/12/13 11:57:48;;;;;;;21.10;17.73;;;;;;;;;;10196097;28;20125;-66
2023/12/13 12:02:46;;;;;;;19.67;15.98;;;;;;;;;;10199347;28;20128;-67
2023/12/13 12:07:55;;;;;;;17.10;15.02;;;;;;;;;;10201896;28;20136;-66
2023/12/13 12:12:53;;;;;;;15.98;13.48;;;;;;;;;;10204596;28;20094;-67
2023/12/13 12:17:52;;;;;;;21.42;17.70;;;;;;;;;;10166820;28;20038;-66
2023/12/13 12:22:51;;;;;;;27.92;19.95;;;;;;;;;;10175786;28;20505;-67
2023/12/13 12:27:52;;;;;;;27.73;19.67;;;;;;;;;;10193859;28;20124;-67
2023/12/13 12:32:50;;;;;;;66.10;41.42;;;;;;;;;;10199644;28;20073;-67
2023/12/13 12:37:49;;;;;;;27.20;19.98;;;;;;;;;;10204253;28;20529;-67
2023/12/13 12:42:48;;;;;;;32.40;14.43;;;;;;;;;;10196482;28;20511;-67
2023/12/13 12:47:47;;;;;;;31.38;24.27;;;;;;;;;;10198899;28;20530;-65
2023/12/13 12:52:45;;;;;;;33.47;27.02;;;;;;;;;;10187453;28;20140;-66
2023/12/13 12:57:45;;;;;;;25.40;21.75;;;;;;;;;;10193390;28;20132;-67
2023/12/13 13:02:44;;;;;;;23.23;16.67;;;;;;;;;;10191599;28;20148;-66
2023/12/13 13:07:42;;;;;;;47.90;36.72;;;;;;;;;;10190556;28;20121;-66
2023/12/13 13:12:42;;;;;;;40.53;30.98;;;;;;;;;;10193290;28;20132;-66
2023/12/13 13:17:40;;;;;;;116.47;77.97;;;;;;;;;;10176578;28;20128;-66
2023/12/13 13:22:40;;;;;;;31.42;27.17;;;;;;;;;;10199947;28;20145;-66
2023/12/13 13:27:39;;;;;;;31.10;24.35;;;;;;;;;;10189985;28;20136;-67
2023/12/13 13:32:38;;;;;;;31.08;24.15;;;;;;;;;;10157026;28;20426;-68
2023/12/13 13:37:36;;;;;;;27.52;20.45;;;;;;;;;;10163990;28;20053;-67
2023/12/13 13:42:36;;;;;;;26.73;20.00;;;;;;;;;;10200813;28;20065;-66
2023/12/13 13:47:34;;;;;;;27.23;24.35;;;;;;;;;;10204131;28;20498;-66
2023/12/13 13:52:33;;;;;;;25.85;21.95;;;;;;;;;;10205550;28;20072;-67
2023/12/13 13:57:32;;;;;;;20.90;18.67;;;;;;;;;;10196872;28;20069;-66
2023/12/13 14:02:33;;;;;;;25.20;21.45;;;;;;;;;;10181589;28;20140;-66
2023/12/13 14:07:32;;;;;;;45.95;36.58;;;;;;;;;;10158606;28;20545;-67
2023/12/13 14:12:31;;;;;;;34.55;28.90;;;;;;;;;;10157813;28;20305;-67
2023/12/13 14:17:29;;;;;;;30.27;27.15;;;;;;;;;;10157325;28;20045;-67
2023/12/13 14:22:30;;;;;;;32.35;28.83;;;;;;;;;;10157874;28;20511;-67
2023/12/13 14:27:28;;;;;;;38.58;34.42;;;;;;;;;;10165277;28;20499;-65
2023/12/13 14:32:27;;;;;;;35.85;32.03;;;;;;;;;;10165705;28;20051;-67
2023/12/13 14:37:25;;;;;;;35.85;30.48;;;;;;;;;;10164968;28;20071;-67
2023/12/13 14:42:25;;;;;;;43.33;35.13;;;;;;;;;;10164161;28;20041;-66
2023/12/13 14:47:23;;;;;;;49.25;39.80;;;;;;;;;;10202004;28;20065;-66
2023/12/13 14:52:21;;;;;;;51.65;44.05;;;;;;;;;;10206923;28;20072;-66
2023/12/13 14:57:19;;;;;;;59.22;47.42;;;;;;;;;;10207200;28;20072;-67
2023/12/13 15:02:19;;;;;;;47.55;39.15;;;;;;;;;;10207999;28;20069;-67
2023/12/13 15:07:18;;;;;;;38.97;33.25;;;;;;;;;;10189171;28;20156;-67
2023/12/13 15:12:16;;;;;;;35.42;29.25;;;;;;;;;;10159297;28;20045;-66
2023/12/13 15:17:14;;;;;;;30.63;26.25;;;;;;;;;;10157313;28;20079;-67
2023/12/13 15:22:14;;;;;;;33.55;25.63;;;;;;;;;;10197091;28;20598;-63
2023/12/13 15:27:13;;;;;;;32.10;24.23;;;;;;;;;;10202823;28;20073;-68
2023/12/13 15:32:13;;;;;;;27.77;23.10;;;;;;;;;;10204358;28;20070;-67
2023/12/13 15:37:11;;;;;;;28.15;23.65;;;;;;;;;;10205436;28;20081;-67
2023/12/13 15:42:11;;;;;;;40.42;33.97;;;;;;;;;;10189539;28;20076;-66
2023/12/13 15:47:09;;;;;;;31.10;26.67;;;;;;;;;;10203363;28;20073;-67
2023/12/13 15:52:07;;;;;;;32.42;26.25;;;;;;;;;;10201073;28;20065;-67
2023/12/13 15:57:05;;;;;;;33.75;28.27;;;;;;;;;;10187619;28;20128;-67
2023/12/13 16:02:06;;;;;;;89.07;59.67;;;;;;;;;;10192360;28;20121;-68
2023/12/13 16:07:04;;;;;;;62.70;46.40;;;;;;;;;;10177946;28;21086;-67
2023/12/13 16:12:03;;;;;;;29.55;26.52;;;;;;;;;;10180260;28;20120;-67
2023/12/13 16:17:02;;;;;;;27.20;24.13;;;;;;;;;;10187098;28;20124;-67
2023/12/13 16:22:01;;;;;;;71.65;50.40;;;;;;;;;;10191066;28;20145;-67
2023/12/13 16:27:00;;;;;;;74.15;54.80;;;;;;;;;;10199965;28;20080;-67
2023/12/13 16:31:58;;;;;;;77.65;63.65;;;;;;;;;;10201483;28;20084;-67
2023/12/13 16:36:56;;;;;;;92.78;77.20;;;;;;;;;;10201479;28;20537;-66
2023/12/13 16:41:56;;;;;;;67.28;58.38;;;;;;;;;;10200029;28;20081;-65
2023/12/13 16:46:54;;;;;;;56.20;48.50;;;;;;;;;;10201960;28;20077;-65
2023/12/13 16:51:53;;;;;;;54.10;45.83;;;;;;;;;;10202259;28;20144;-66
2023/12/13 16:56:51;;;;;;;70.20;53.63;;;;;;;;;;10203921;28;20073;-65
2023/12/13 17:01:51;;;;;;;61.67;52.45;;;;;;;;;;10204582;28;20080;-66
2023/12/13 17:06:49;;;;;;;61.90;51.88;;;;;;;;;;10208531;28;20066;-66
2023/12/13 17:11:47;;;;;;;58.15;48.83;;;;;;;;;;10200626;28;20070;-67
2023/12/13 17:16:45;;;;;;;57.80;48.50;;;;;;;;;;10197962;28;20073;-67
2023/12/13 17:21:45;;;;;;;50.75;41.15;;;;;;;;;;10206186;28;20078;-66
2023/12/13 17:26:43;;;;;;;39.95;32.25;;;;;;;;;;10206520;28;20068;-67
2023/12/13 17:31:42;;;;;;;314.13;188.88;;;;;;;;;;10211514;28;20102;-67
2023/12/13 17:36:40;;;;;;;170.68;116.85;;;;;;;;;;10205474;28;20070;-67
2023/12/13 17:41:40;;;;;;;119.53;83.38;;;;;;;;;;10208762;28;20092;-67
2023/12/13 17:46:38;;;;;;;113.97;87.03;;;;;;;;;;10206552;28;20080;-67
2023/12/13 17:51:37;;;;;;;102.70;82.55;;;;;;;;;;10204445;28;20080;-66
2023/12/13 17:56:35;;;;;;;141.30;108.18;;;;;;;;;;10197731;28;20073;-65
2023/12/13 18:01:35;;;;;;;121.38;88.80;;;;;;;;;;10186756;28;20170;-66
2023/12/13 18:06:33;;;;;;;115.95;85.40;;;;;;;;;;10195427;28;20140;-67
2023/12/13 18:11:32;;;;;;;116.82;85.75;;;;;;;;;;10199676;28;20073;-67
2023/12/13 18:16:30;;;;;;;215.45;153.23;;;;;;;;;;10199251;28;20100;-67
2023/12/13 18:21:30;;;;;;;190.57;136.10;;;;;;;;;;10201052;28;20076;-67
2023/12/13 18:26:28;;;;;;;141.38;111.70;;;;;;;;;;10188703;28;20493;-67
2023/12/13 18:31:26;;;;;;;246.38;179.35;;;;;;;;;;10184908;28;20156;-66
2023/12/13 18:36:24;;;;;;;212.75;156.32;;;;;;;;;;10187216;28;20472;-66
2023/12/13 18:41:24;;;;;;;208.85;147.95;;;;;;;;;;10162988;28;20183;-66
2023/12/13 18:46:23;;;;;;;170.35;125.05;;;;;;;;;;10146359;28;20053;-67
2023/12/13 18:51:21;;;;;;;160.40;119.75;;;;;;;;;;10166638;28;20112;-67
2023/12/13 18:56:20;;;;;;;275.33;163.55;;;;;;;;;;10165920;28;20124;-67
2023/12/13 19:01:20;;;;;;;298.25;219.25;;;;;;;;;;10154640;28;20044;-66
2023/12/13 19:06:18;;;;;;;161.02;122.45;;;;;;;;;;10174987;28;20128;-67
2023/12/13 19:11:17;;;;;;;160.93;118.40;;;;;;;;;;10164479;28;20053;-66
2023/12/13 19:16:15;;;;;;;122.18;93.05;;;;;;;;;;10185291;28;20128;-68
2023/12/13 19:21:14;;;;;;;158.20;123.60;;;;;;;;;;10157912;28;20041;-66
2023/12/13 19:26:13;;;;;;;181.77;133.35;;;;;;;;;;10143844;28;20685;-64
2023/12/13 19:31:11;;;;;;;175.68;134.25;;;;;;;;;;10183915;28;20128;-66
2023/12/13 19:36:10;;;;;;;141.68;112.03;;;;;;;;;;10144562;28;20503;-66
2023/12/13 19:41:10;;;;;;;155.70;121.43;;;;;;;;;;10171765;28;20693;-65
2023/12/13 19:46:08;;;;;;;152.98;119.47;;;;;;;;;;10198864;28;20150;-65
2023/12/13 19:51:06;;;;;;;174.60;128.98;;;;;;;;;;10204281;28;20072;-66
2023/12/13 19:56:05;;;;;;;223.88;164.75;;;;;;;;;;10159795;28;20045;-66
2023/12/13 20:01:09;;;;;;;186.30;134.52;;;;;;;;;;10197741;28;20129;-66
2023/12/13 20:06:09;;;;;;;257.75;200.68;;;;;;;;;;10211697;28;20072;-66
2023/12/13 20:11:07;;;;;;;216.80;160.95;;;;;;;;;;10186964;28;20069;-66
2023/12/13 20:16:06;;;;;;;226.60;168.27;;;;;;;;;;10210649;28;20068;-66
2023/12/13 20:21:06;;;;;;;146.02;110.03;;;;;;;;;;10189158;28;20121;-66
2023/12/13 20:26:04;;;;;;;164.55;125.78;;;;;;;;;;10211255;28;20188;-65
2023/12/13 20:31:03;;;;;;;152.38;116.00;;;;;;;;;;10201153;28;20065;-66
2023/12/13 20:36:06;;;;;;;145.07;113.32;;;;;;;;;;10211788;28;20076;-66
2023/12/13 20:41:08;;;;;;;141.02;110.63;;;;;;;;;;10187200;28;20141;-67
2023/12/13 20:46:06;;;;;;;146.25;107.55;;;;;;;;;;10201765;28;20084;-66
2023/12/13 20:51:05;;;;;;;109.78;81.82;;;;;;;;;;10209921;28;20078;-65
2023/12/13 20:56:03;;;;;;;105.22;78.57;;;;;;;;;;10196063;28;21457;-66
2023/12/13 21:01:03;;;;;;;97.18;76.72;;;;;;;;;;10198320;28;20480;-65
2023/12/13 21:06:01;;;;;;;86.60;68.22;;;;;;;;;;10203511;28;20085;-66
2023/12/13 21:10:59;;;;;;;110.38;85.72;;;;;;;;;;10211948;28;20068;-66
2023/12/13 21:15:58;;;;;;;79.30;63.97;;;;;;;;;;10185621;28;21551;-66
2023/12/13 21:20:57;;;;;;;114.45;82.60;;;;;;;;;;10208098;28;20108;-66
2023/12/13 21:25:56;;;;;;;149.32;103.97;;;;;;;;;;10204490;28;20084;-66
2023/12/13 21:30:55;;;;;;;78.85;56.65;;;;;;;;;;10205133;28;20064;-65
2023/12/13 21:35:53;;;;;;;68.90;53.08;;;;;;;;;;10212862;28;20057;-66
2023/12/13 21:40:55;;;;;;;48.67;37.38;;;;;;;;;;10163148;28;20148;-66
2023/12/13 21:45:54;;;;;;;50.40;40.22;;;;;;;;;;10155749;28;20049;-66
2023/12/13 21:50:52;;;;;;;56.42;43.00;;;;;;;;;;10158095;28;20116;-66
2023/12/13 21:55:50;;;;;;;40.28;32.20;;;;;;;;;;10166066;28;20045;-65
2023/12/13 22:00:50;;;;;;;60.75;45.97;;;;;;;;;;10181040;28;20184;-65
2023/12/13 22:05:49;;;;;;;46.13;35.45;;;;;;;;;;10193042;28;20143;-65
2023/12/13 22:10:49;;;;;;;51.47;38.17;;;;;;;;;;10204097;28;20153;-66
2023/12/13 22:15:49;;;;;;;40.35;32.88;;;;;;;;;;10205220;28;20546;-65
2023/12/13 22:20:48;;;;;;;47.67;38.40;;;;;;;;;;10200858;28;20070;-65
2023/12/13 22:25:47;;;;;;;49.22;39.75;;;;;;;;;;10197957;28;20073;-66
2023/12/13 22:30:45;;;;;;;45.30;35.08;;;;;;;;;;10201105;28;20076;-67
2023/12/13 22:35:44;;;;;;;61.90;36.40;;;;;;;;;;10202468;28;20111;-64
2023/12/13 22:40:43;;;;;;;91.43;37.20;;;;;;;;;;10200041;28;20483;-66
2023/12/13 22:45:42;;;;;;;38.83;28.73;;;;;;;;;;10205126;28;20073;-65
2023/12/13 22:50:42;;;;;;;37.22;29.58;;;;;;;;;;10208244;28;20522;-65
2023/12/13 22:55:40;;;;;;;37.42;30.48;;;;;;;;;;10211432;28;20077;-65
2023/12/13 23:00:40;;;;;;;39.60;33.63;;;;;;;;;;10206962;28;20065;-64
2023/12/13 23:05:40;;;;;;;35.33;27.42;;;;;;;;;;10210067;28;20073;-64
2023/12/13 23:10:40;;;;;;;31.75;27.17;;;;;;;;;;10213387;28;20072;-65
2023/12/13 23:15:39;;;;;;;32.08;27.20;;;;;;;;;;10213286;28;20077;-65
2023/12/13 23:20:38;;;;;;;33.13;27.23;;;;;;;;;;10209297;28;20065;-66
2023/12/13 23:25:39;;;;;;;40.03;29.90;;;;;;;;;;10208812;28;20097;-66
2023/12/13 23:30:37;;;;;;;37.33;28.98;;;;;;;;;;10192861;28;20065;-65
2023/12/13 23:35:37;;;;;;;36.40;27.30;;;;;;;;;;10212591;28;20073;-65
2023/12/13 23:40:35;;;;;;;35.08;27.65;;;;;;;;;;10196321;28;20080;-65
2023/12/13 23:45:33;;;;;;;30.48;26.60;;;;;;;;;;10209878;28;20080;-65
2023/12/13 23:50:32;;;;;;;29.27;25.42;;;;;;;;;;10211713;28;20436;-65
2023/12/13 23:55:31;;;;;;;32.50;26.00;;;;;;;;;;10209560;28;20484;-65
